Time;durP1;ratioP1;P1;durP2;ratioP2;P2;SDS_P1;SDS_P2;PMS_P1;PMS_P2;Temp;Humidity;BMP_temperature;BMP_pressure;BME280_temperature;BME280_humidity;BME280_pressure;Samples;Min_cycle;Max_cycle;Signal;HPM_P1;HPM_P2
2022/05/14 00:01:42;;;;;;;5.70;2.33;;;16.40;95.60;;;;;;4982520;28;20049;-75
2022/05/14 00:04:18;;;;;;;5.15;2.03;;;16.40;95.30;;;;;;4975568;28;20014;-75
2022/05/14 00:06:54;;;;;;;2.03;1.60;;;16.30;94.80;;;;;;4977814;28;20018;-75
2022/05/14 00:09:26;;;;;;;5.32;1.73;;;16.30;94.80;;;;;;4980058;28;20027;-75
2022/05/14 00:14:42;;;;;;;2.95;1.73;;;16.20;94.50;;;;;;4973414;28;20029;-75
2022/05/14 00:17:08;;;;;;;6.30;2.35;;;16.10;94.10;;;;;;4979418;28;20476;-75
2022/05/14 00:19:38;;;;;;;7.23;1.97;;;16.10;93.80;;;;;;4975556;28;20033;-76
2022/05/14 00:22:07;;;;;;;4.15;1.80;;;16.00;93.60;;;;;;4992140;28;20268;-74
2022/05/14 00:24:33;;;;;;;5.50;1.80;;;16.10;93.20;;;;;;4972205;28;20014;-76
2022/05/14 00:27:00;;;;;;;3.13;2.10;;;16.00;93.10;;;;;;4997890;28;20022;-75
2022/05/14 00:29:27;;;;;;;4.95;1.70;;;16.00;93.20;;;;;;4974716;28;20022;-75
2022/05/14 00:31:55;;;;;;;5.18;1.60;;;16.00;93.20;;;;;;4981595;28;20538;-75
2022/05/14 00:34:22;;;;;;;3.58;1.50;;;15.90;92.90;;;;;;4979583;28;20022;-76
2022/05/14 00:36:48;;;;;;;5.13;1.92;;;15.90;93.00;;;;;;4976530;28;20023;-76
2022/05/14 00:39:27;;;;;;;4.63;1.73;;;15.90;92.80;;;;;;4994284;28;20028;-75
2022/05/14 00:41:53;;;;;;;3.63;2.10;;;15.90;92.60;;;;;;4979769;28;20348;-75
2022/05/14 00:44:39;;;;;;;3.60;1.73;;;15.90;92.60;;;;;;4978937;28;20494;-75
2022/05/14 00:47:12;;;;;;;5.63;1.60;;;15.90;92.70;;;;;;4976976;28;20049;-75
2022/05/14 00:49:40;;;;;;;3.38;1.63;;;15.90;92.70;;;;;;4974346;28;20018;-75
2022/05/14 00:52:18;;;;;;;2.25;1.50;;;15.90;92.90;;;;;;4977867;28;20018;-76
2022/05/14 00:55:06;;;;;;;4.78;2.15;;;15.90;92.80;;;;;;4974319;28;20226;-76
2022/05/14 00:57:39;;;;;;;4.28;2.15;;;15.80;92.10;;;;;;4994062;28;20076;-75
2022/05/14 01:00:11;;;;;;;5.78;1.70;;;15.70;92.40;;;;;;4990280;28;20018;-75
2022/05/14 01:02:38;;;;;;;4.55;1.60;;;15.70;92.40;;;;;;4972123;28;20121;-76
2022/05/14 01:05:06;;;;;;;4.13;1.52;;;15.70;92.70;;;;;;4977275;28;20030;-75
2022/05/14 01:07:32;;;;;;;3.63;1.50;;;15.70;92.60;;;;;;4975204;28;20105;-75
2022/05/14 01:10:03;;;;;;;3.33;2.08;;;15.70;92.70;;;;;;4978993;28;20130;-75
2022/05/14 01:12:31;;;;;;;4.53;1.70;;;15.60;92.50;;;;;;4976350;28;20586;-75
2022/05/14 01:15:15;;;;;;;6.75;1.77;;;15.60;92.60;;;;;;4978876;28;20085;-76
2022/05/14 01:17:43;;;;;;;4.47;1.85;;;15.60;92.80;;;;;;4975040;28;20026;-75
2022/05/14 01:20:10;;;;;;;4.20;1.80;;;15.60;92.50;;;;;;4981572;28;20037;-75
2022/05/14 01:23:04;;;;;;;3.60;1.40;;;15.50;92.40;;;;;;4978924;28;20026;-75
2022/05/14 01:28:40;;;;;;;5.35;1.85;;;15.50;93.00;;;;;;4983229;28;20711;-75
2022/05/14 01:31:05;;;;;;;3.58;1.40;;;15.50;92.90;;;;;;4979406;28;20038;-75
2022/05/14 01:33:34;;;;;;;4.70;1.73;;;15.50;92.70;;;;;;4982222;28;20026;-75
2022/05/14 01:36:07;;;;;;;4.03;1.73;;;15.40;92.90;;;;;;4983474;28;20321;-76
2022/05/14 01:38:33;;;;;;;4.30;1.92;;;15.40;92.80;;;;;;4985045;28;20034;-75
2022/05/14 01:41:02;;;;;;;2.27;1.43;;;15.30;92.90;;;;;;4978675;28;20717;-75
2022/05/14 01:43:31;;;;;;;3.15;1.60;;;15.20;92.90;;;;;;4984518;28;20044;-75
2022/05/14 01:45:59;;;;;;;5.45;2.10;;;15.20;93.10;;;;;;4978909;28;20046;-76
2022/05/14 01:48:26;;;;;;;3.53;1.67;;;15.20;93.00;;;;;;4983302;28;20041;-76
2022/05/14 01:50:52;;;;;;;4.38;1.60;;;15.10;93.10;;;;;;4977502;28;20149;-75
2022/05/14 01:53:19;;;;;;;3.60;1.60;;;15.20;93.10;;;;;;4983284;28;20672;-75
2022/05/14 01:55:45;;;;;;;4.78;1.70;;;15.20;93.20;;;;;;4977922;28;20262;-75
2022/05/14 01:58:38;;;;;;;5.53;1.87;;;15.10;93.00;;;;;;4982379;28;20033;-76
2022/05/14 02:01:15;;;;;;;6.65;1.75;;;15.10;93.10;;;;;;4979420;28;20064;-75
2022/05/14 02:03:46;;;;;;;3.85;1.88;;;15.00;93.00;;;;;;4986493;28;20026;-75
2022/05/14 02:06:24;;;;;;;3.83;1.65;;;15.00;92.90;;;;;;4984599;28;20019;-75
2022/05/14 02:08:55;;;;;;;2.85;1.65;;;15.00;93.30;;;;;;4997104;28;20023;-75
2022/05/14 02:11:33;;;;;;;4.97;2.05;;;15.00;93.30;;;;;;4984048;28;20018;-75
2022/05/14 02:14:11;;;;;;;6.35;1.77;;;14.90;93.20;;;;;;4982605;28;20383;-76
2022/05/14 02:16:39;;;;;;;3.97;1.42;;;14.90;93.10;;;;;;4984612;28;20041;-75
2022/05/14 02:19:06;;;;;;;3.05;1.83;;;14.90;93.30;;;;;;4979223;28;20489;-76
2022/05/14 02:21:35;;;;;;;3.78;1.77;;;14.90;93.50;;;;;;4981825;28;20026;-75
2022/05/14 02:24:06;;;;;;;4.35;1.80;;;14.80;93.50;;;;;;4975980;28;20034;-75
2022/05/14 02:26:34;;;;;;;5.35;1.63;;;14.70;93.60;;;;;;4998713;28;20479;-75
2022/05/14 02:29:02;;;;;;;3.55;1.92;;;14.70;93.80;;;;;;4978383;28;20022;-76
2022/05/14 02:31:28;;;;;;;5.20;1.65;;;14.60;93.80;;;;;;4981645;28;20022;-75
2022/05/14 02:33:59;;;;;;;2.50;1.50;;;14.60;93.80;;;;;;4981723;28;20035;-75
2022/05/14 02:36:36;;;;;;;2.30;1.58;;;14.60;93.80;;;;;;4996995;28;20038;-75
2022/05/14 02:39:03;;;;;;;3.95;2.10;;;14.60;93.80;;;;;;4980571;28;20030;-75
2022/05/14 02:41:29;;;;;;;5.80;1.80;;;14.60;93.80;;;;;;4977066;28;20099;-76
2022/05/14 02:43:59;;;;;;;3.90;1.80;;;14.60;93.80;;;;;;4983510;28;20670;-75
2022/05/14 02:46:28;;;;;;;6.45;1.65;;;14.60;94.00;;;;;;4977438;28;20050;-75
2022/05/14 02:48:54;;;;;;;6.57;1.92;;;14.50;93.70;;;;;;4981622;28;20023;-75
2022/05/14 02:51:20;;;;;;;2.70;1.50;;;14.50;93.80;;;;;;4976807;28;20080;-75
2022/05/14 02:53:45;;;;;;;5.55;2.28;;;14.50;93.80;;;;;;4996437;28;20022;-75
2022/05/14 02:56:13;;;;;;;4.10;2.33;;;14.50;93.90;;;;;;4997056;28;20193;-75
2022/05/14 03:01:26;;;;;;;3.80;1.90;;;14.40;93.70;;;;;;4976014;28;20029;-75
2022/05/14 03:03:59;;;;;;;2.63;1.70;;;14.40;93.90;;;;;;4982329;28;20022;-75
2022/05/14 03:06:27;;;;;;;4.47;1.90;;;14.50;93.80;;;;;;4976020;28;20023;-75
2022/05/14 03:08:54;;;;;;;8.90;2.20;;;14.40;93.60;;;;;;4980746;28;20030;-75
2022/05/14 03:11:25;;;;;;;3.58;1.85;;;14.40;93.60;;;;;;4990672;28;20101;-75
2022/05/14 03:13:54;;;;;;;7.47;2.03;;;14.50;93.40;;;;;;4997068;28;20055;-75
2022/05/14 03:16:25;;;;;;;3.47;1.80;;;14.40;93.30;;;;;;4976803;28;20057;-75
2022/05/14 03:18:50;;;;;;;3.40;1.85;;;14.40;93.30;;;;;;4981477;28;20022;-76
2022/05/14 03:21:16;;;;;;;3.60;1.80;;;14.40;93.20;;;;;;4975050;28;20023;-75
2022/05/14 03:23:45;;;;;;;4.63;2.30;;;14.40;93.30;;;;;;4981110;28;20090;-75
2022/05/14 03:26:12;;;;;;;2.67;1.80;;;14.40;93.20;;;;;;4980228;28;20026;-75
2022/05/14 03:28:37;;;;;;;;;;;14.50;93.20;;;;;;4976780;28;20025;-75
2022/05/14 03:31:03;;;;;;;4.68;2.30;;;14.40;93.10;;;;;;4982424;28;19906;-75
2022/05/14 03:33:30;;;;;;;5.93;1.60;;;14.40;93.10;;;;;;4976477;28;20662;-75
2022/05/14 03:35:58;;;;;;;3.03;1.73;;;14.40;93.10;;;;;;4982476;28;20027;-75
2022/05/14 03:38:28;;;;;;;4.25;1.63;;;14.40;93.10;;;;;;4975515;28;21584;-76
2022/05/14 03:41:04;;;;;;;2.65;1.48;;;14.40;93.10;;;;;;4995639;28;20030;-76
2022/05/14 03:43:31;;;;;;;6.32;1.70;;;14.40;93.10;;;;;;4975116;28;20038;-75
2022/05/14 03:45:58;;;;;;;6.95;1.80;;;14.50;93.20;;;;;;4981604;28;20569;-75
2022/05/14 03:48:36;;;;;;;3.13;1.65;;;14.60;93.10;;;;;;4974857;28;20844;-75
2022/05/14 03:51:05;;;;;;;2.50;1.92;;;14.50;93.30;;;;;;4979998;28;20112;-76
2022/05/14 03:53:31;;;;;;;4.55;1.70;;;14.60;93.10;;;;;;4991546;28;20499;-75
2022/05/14 03:55:57;;;;;;;5.97;2.08;;;14.60;93.20;;;;;;4979935;28;20046;-75
2022/05/14 03:58:28;;;;;;;5.70;1.63;;;14.60;93.10;;;;;;4975573;28;20129;-75
2022/05/14 04:00:57;;;;;;;4.25;1.65;;;14.70;93.00;;;;;;4983205;28;20604;-75
2022/05/14 04:03:25;;;;;;;4.63;2.00;;;14.80;93.20;;;;;;4976312;28;20061;-76
2022/05/14 04:05:56;;;;;;;3.53;1.45;;;14.80;93.00;;;;;;4980136;28;20118;-75
2022/05/14 04:08:29;;;;;;;4.13;1.85;;;14.90;92.70;;;;;;4975401;28;20035;-75
2022/05/14 04:10:57;;;;;;;8.95;2.20;;;14.90;92.60;;;;;;4979868;28;20056;-76
2022/05/14 04:13:28;;;;;;;3.40;1.80;;;14.90;92.80;;;;;;4974341;28;20030;-75
2022/05/14 04:16:03;;;;;;;5.65;1.73;;;15.00;92.80;;;;;;4981070;28;20729;-75
2022/05/14 04:18:29;;;;;;;4.10;1.70;;;15.00;92.60;;;;;;4975449;28;20747;-75
2022/05/14 04:20:59;;;;;;;6.47;1.83;;;15.10;92.60;;;;;;4979724;28;20030;-75
2022/05/14 04:23:29;;;;;;;4.25;1.98;;;15.10;92.60;;;;;;4975458;28;20030;-76
2022/05/14 04:25:57;;;;;;;3.88;1.90;;;15.00;92.60;;;;;;4980521;28;20026;-75
2022/05/14 04:28:30;;;;;;;3.47;1.80;;;15.10;92.60;;;;;;4975442;28;20086;-75
2022/05/14 04:30:58;;;;;;;5.15;1.73;;;15.10;92.70;;;;;;4981820;28;20037;-75
2022/05/14 04:33:26;;;;;;;2.58;1.92;;;15.20;92.50;;;;;;4982719;28;20022;-76
2022/05/14 04:35:54;;;;;;;2.47;1.77;;;15.40;92.30;;;;;;4985894;28;20054;-76
2022/05/14 04:38:21;;;;;;;3.60;1.92;;;15.50;92.20;;;;;;4978100;28;20049;-75
2022/05/14 04:40:49;;;;;;;3.08;1.70;;;15.60;91.90;;;;;;4982697;28;20034;-75
2022/05/14 04:43:15;;;;;;;7.28;1.77;;;15.60;91.50;;;;;;4979321;28;20033;-75
2022/05/14 04:45:54;;;;;;;2.60;1.55;;;15.70;91.60;;;;;;4981953;28;20105;-76
2022/05/14 04:48:23;;;;;;;4.72;2.28;;;15.80;91.10;;;;;;4976585;28;20053;-75
2022/05/14 04:50:50;;;;;;;4.03;1.80;;;15.90;91.00;;;;;;4980365;28;20046;-76
2022/05/14 04:53:16;;;;;;;6.97;2.20;;;16.00;90.90;;;;;;4992283;28;20084;-75
2022/05/14 04:55:43;;;;;;;3.90;1.67;;;16.10;90.80;;;;;;4980011;28;20023;-75
2022/05/14 04:58:09;;;;;;;6.97;1.75;;;16.10;90.70;;;;;;4979370;28;20081;-75
2022/05/14 05:00:38;;;;;;;3.58;2.05;;;16.20;90.50;;;;;;4978542;28;20023;-76
2022/05/14 05:03:17;;;;;;;3.58;1.75;;;16.40;90.10;;;;;;4992057;28;20490;-75
2022/05/14 05:05:52;;;;;;;4.57;1.65;;;16.40;90.10;;;;;;4980634;28;20022;-75
2022/05/14 05:08:30;;;;;;;2.53;1.63;;;16.60;90.20;;;;;;4974284;28;20023;-75
2022/05/14 05:10:56;;;;;;;2.75;1.50;;;16.60;89.90;;;;;;4980295;28;20034;-76
2022/05/14 05:13:27;;;;;;;4.07;1.63;;;16.80;89.60;;;;;;4975689;28;20026;-76
2022/05/14 05:15:55;;;;;;;4.65;2.13;;;16.80;88.40;;;;;;4980932;28;20523;-76
2022/05/14 05:18:21;;;;;;;4.18;1.45;;;17.00;88.30;;;;;;4974577;28;20014;-76
2022/05/14 05:20:49;;;;;;;2.78;1.83;;;17.20;88.50;;;;;;4978648;28;20506;-76
2022/05/14 05:23:17;;;;;;;4.38;1.63;;;17.30;87.80;;;;;;4978813;28;20023;-75
2022/05/14 05:25:43;;;;;;;3.60;1.70;;;17.40;87.20;;;;;;4978129;28;20438;-75
2022/05/14 05:28:10;;;;;;;7.18;2.40;;;17.50;87.50;;;;;;4977077;28;20072;-74
2022/05/14 05:30:36;;;;;;;7.13;1.88;;;17.70;85.80;;;;;;4974601;28;20022;-73
2022/05/14 05:33:12;;;;;;;6.45;2.28;;;18.00;86.20;;;;;;4981565;28;20033;-73
2022/05/14 05:35:39;;;;;;;7.68;2.70;;;18.30;85.60;;;;;;4972946;28;20018;-73
2022/05/14 05:38:05;;;;;;;6.97;2.88;;;18.50;85.10;;;;;;4979790;28;20101;-73
2022/05/14 05:40:30;;;;;;;7.18;2.72;;;18.70;84.40;;;;;;4972721;28;20121;-73
2022/05/14 05:42:56;;;;;;;8.60;2.58;;;18.80;83.90;;;;;;4979357;28;20052;-73
2022/05/14 05:45:22;;;;;;;5.82;2.30;;;19.00;84.10;;;;;;4972872;28;20027;-74
2022/05/14 05:47:48;;;;;;;5.25;2.45;;;19.30;82.90;;;;;;4978081;28;20034;-73
2022/05/14 05:50:15;;;;;;;6.28;2.83;;;19.50;82.50;;;;;;4976186;28;20026;-73
2022/05/14 05:52:41;;;;;;;3.67;2.33;;;19.90;82.30;;;;;;4975875;28;20031;-75
2022/05/14 05:57:56;;;;;;;5.63;2.53;;;20.40;79.50;;;;;;4977887;28;20045;-74
2022/05/14 06:00:28;;;;;;;5.78;2.70;;;20.90;77.70;;;;;;4972762;28;20021;-75
2022/05/14 06:02:55;;;;;;;6.40;3.00;;;21.70;75.60;;;;;;4979121;28;20085;-75
2022/05/14 06:05:22;;;;;;;6.88;3.28;;;23.00;72.40;;;;;;4973770;28;20041;-75
2022/05/14 06:07:48;;;;;;;4.65;2.45;;;24.90;68.40;;;;;;4980015;28;20018;-75
2022/05/14 06:10:18;;;;;;;6.32;2.45;;;27.30;60.50;;;;;;4980233;28;20042;-74
2022/05/14 06:12:46;;;;;;;4.10;2.20;;;29.30;54.70;;;;;;4982820;28;20456;-74
2022/05/14 06:15:16;;;;;;;6.40;2.20;;;30.60;51.30;;;;;;4980039;28;20033;-75
2022/05/14 06:17:48;;;;;;;6.10;2.10;;;31.80;47.50;;;;;;4981422;28;20031;-76
2022/05/14 06:20:19;;;;;;;4.32;2.25;;;32.80;43.90;;;;;;4979674;28;20101;-76
2022/05/14 06:22:55;;;;;;;5.22;2.00;;;33.10;42.60;;;;;;4997436;28;20039;-76
2022/05/14 06:25:23;;;;;;;4.47;2.17;;;33.30;42.00;;;;;;4977011;28;20105;-76
2022/05/14 06:27:49;;;;;;;5.63;2.20;;;33.70;41.60;;;;;;4981040;28;20033;-75
2022/05/14 06:30:30;;;;;;;5.82;2.40;;;34.30;40.00;;;;;;4980289;28;20427;-76
2022/05/14 06:33:02;;;;;;;4.78;1.98;;;34.60;39.60;;;;;;4999773;28;20472;-76
2022/05/14 06:35:29;;;;;;;6.13;1.92;;;35.40;38.60;;;;;;4976694;28;20149;-77
2022/05/14 06:37:56;;;;;;;3.20;1.98;;;35.70;38.50;;;;;;4983672;28;21183;-76
2022/05/14 06:40:23;;;;;;;5.82;2.33;;;35.80;36.90;;;;;;4991408;28;20530;-76
2022/05/14 06:42:59;;;;;;;4.55;2.00;;;35.20;37.40;;;;;;4983268;28;20072;-77
2022/05/14 06:45:30;;;;;;;5.50;2.10;;;34.80;37.20;;;;;;4991729;28;20617;-77
2022/05/14 06:47:57;;;;;;;4.68;2.08;;;34.80;36.80;;;;;;4982128;28;20165;-77
2022/05/14 06:50:38;;;;;;;4.88;2.08;;;34.40;37.00;;;;;;4975416;28;20034;-77
2022/05/14 06:53:04;;;;;;;5.00;2.33;;;34.20;37.20;;;;;;4982094;28;20023;-76
2022/05/14 06:55:38;;;;;;;4.43;2.35;;;35.00;36.70;;;;;;4976086;28;20049;-77
2022/05/14 06:58:07;;;;;;;4.25;2.10;;;35.10;37.30;;;;;;4976134;28;20509;-77
2022/05/14 07:00:33;;;;;;;5.45;2.15;;;35.30;36.40;;;;;;4971090;28;20041;-76
2022/05/14 07:08:36;;;;;;;3.60;1.87;;;35.50;35.30;;;;;;4979380;28;20084;-78
2022/05/14 07:11:01;;;;;;;4.72;1.90;;;35.30;35.30;;;;;;4979861;28;20579;-78
2022/05/14 07:13:32;;;;;;;4.22;1.90;;;35.50;35.30;;;;;;4977526;28;20030;-78
2022/05/14 07:16:00;;;;;;;5.85;2.00;;;35.90;35.10;;;;;;4979354;28;20483;-78
2022/05/14 07:18:27;;;;;;;3.13;1.80;;;35.80;34.30;;;;;;4977080;28;20647;-78
2022/05/14 07:20:55;;;;;;;8.32;1.92;;;35.40;34.70;;;;;;4979571;28;20109;-77
2022/05/14 07:23:21;;;;;;;2.50;1.25;;;35.30;35.00;;;;;;4976377;28;20047;-76
2022/05/14 07:25:47;;;;;;;3.63;1.20;;;35.80;34.30;;;;;;4978905;28;20409;-76
2022/05/14 07:28:13;;;;;;;5.07;1.73;;;36.20;34.50;;;;;;4980883;28;20113;-77
2022/05/14 07:30:40;;;;;;;3.35;1.50;;;36.10;33.50;;;;;;4974938;28;20109;-76
2022/05/14 07:33:12;;;;;;;3.28;1.40;;;34.70;33.70;;;;;;4980243;28;20116;-76
2022/05/14 07:35:38;;;;;;;3.22;1.17;;;35.30;34.40;;;;;;4972981;28;20037;-76
2022/05/14 07:38:06;;;;;;;3.88;1.20;;;34.90;34.60;;;;;;4982111;28;20100;-79
2022/05/14 07:40:37;;;;;;;3.17;1.50;;;35.40;34.50;;;;;;4975134;28;20065;-81
2022/05/14 07:43:15;;;;;;;2.40;1.30;;;35.10;34.60;;;;;;4981404;28;20007;-78
2022/05/14 07:45:47;;;;;;;6.18;1.20;;;35.30;34.30;;;;;;4971336;28;20077;-76
2022/05/14 07:48:27;;;;;;;3.83;1.20;;;35.20;34.70;;;;;;4978892;28;20038;-76
2022/05/14 07:50:54;;;;;;;1.90;1.10;;;35.30;34.60;;;;;;4989604;28;20116;-76
2022/05/14 07:53:20;;;;;;;4.40;1.15;;;35.20;34.00;;;;;;4979045;28;20033;-77
2022/05/14 07:55:49;;;;;;;3.58;1.30;;;35.10;34.40;;;;;;4979467;28;20022;-83
2022/05/14 07:58:23;;;;;;;2.72;1.17;;;35.30;34.20;;;;;;4978184;28;20026;-85
2022/05/14 08:00:50;;;;;;;1.42;0.80;;;35.40;34.10;;;;;;4979987;28;20085;-88
2022/05/14 08:03:16;;;;;;;4.07;1.00;;;35.10;33.70;;;;;;4985710;28;20022;-78
2022/05/14 08:05:47;;;;;;;3.90;1.10;;;34.90;33.60;;;;;;4982161;28;20981;-83
2022/05/14 08:08:13;;;;;;;1.77;0.95;;;34.30;33.90;;;;;;4974650;28;20022;-83
2022/05/14 08:10:39;;;;;;;3.97;1.50;;;34.30;34.70;;;;;;4995224;28;20027;-85
2022/05/14 08:13:04;;;;;;;3.42;1.50;;;34.30;34.80;;;;;;4989796;28;20031;-83
2022/05/14 08:15:34;;;;;;;1.55;0.80;;;34.80;34.60;;;;;;4980132;28;20442;-81
2022/05/14 08:18:03;;;;;;;2.35;1.10;;;34.70;33.90;;;;;;4974140;28;20058;-84
2022/05/14 08:20:30;;;;;;;3.85;1.30;;;34.60;34.60;;;;;;4979366;28;20022;-83
2022/05/14 08:25:44;;;;;;;4.28;1.20;;;34.70;33.90;;;;;;4977628;28;20053;-82
2022/05/14 08:28:11;;;;;;;2.97;1.10;;;34.90;34.40;;;;;;4971593;28;20058;-83
2022/05/14 08:30:39;;;;;;;3.22;1.00;;;34.80;33.50;;;;;;4974342;28;20689;-84
2022/05/14 08:33:07;;;;;;;3.45;1.20;;;34.60;34.00;;;;;;4972454;28;20022;-84
2022/05/14 08:35:33;;;;;;;1.02;0.90;;;34.60;34.30;;;;;;4985187;28;20049;-84
2022/05/14 08:37:59;;;;;;;5.50;1.50;;;35.00;34.40;;;;;;4974796;28;20035;-82
2022/05/14 08:40:44;;;;;;;1.98;1.00;;;35.10;34.50;;;;;;4996333;28;20030;-82
2022/05/14 08:43:21;;;;;;;1.33;1.08;;;35.40;34.50;;;;;;4972184;28;20575;-81
2022/05/14 08:45:48;;;;;;;1.83;1.10;;;35.40;34.20;;;;;;4979892;28;20364;-81
2022/05/14 08:48:33;;;;;;;5.53;1.20;;;35.70;34.40;;;;;;4973878;28;20109;-81
2022/05/14 08:51:18;;;;;;;3.13;1.35;;;36.20;33.50;;;;;;4975442;28;20053;-81
2022/05/14 08:53:47;;;;;;;1.45;1.10;;;36.20;33.50;;;;;;4991122;28;20026;-82
2022/05/14 08:56:21;;;;;;;2.13;1.15;;;36.10;33.50;;;;;;4974147;28;20080;-81
2022/05/14 08:59:05;;;;;;;3.30;1.20;;;36.10;33.80;;;;;;4977532;28;20531;-82
2022/05/14 09:01:37;;;;;;;4.50;1.50;;;36.00;34.00;;;;;;4978346;28;20026;-81
2022/05/14 09:04:08;;;;;;;2.38;1.00;;;36.30;34.20;;;;;;4989438;28;20022;-80
2022/05/14 09:06:36;;;;;;;1.50;1.05;;;36.60;33.80;;;;;;4998205;28;20050;-82
2022/05/14 09:09:03;;;;;;;2.40;1.40;;;35.70;34.20;;;;;;4974975;28;20106;-83
2022/05/14 09:11:39;;;;;;;3.72;1.27;;;35.00;34.50;;;;;;4996748;28;20088;-83
2022/05/14 09:14:17;;;;;;;6.88;1.63;;;33.80;35.00;;;;;;4974003;28;20109;-83
2022/05/14 09:16:44;;;;;;;5.47;1.40;;;32.90;35.80;;;;;;4977135;28;20101;-83
2022/05/14 09:19:17;;;;;;;2.72;1.48;;;32.40;36.00;;;;;;4973928;28;20147;-83
2022/05/14 09:22:12;;;;;;;1.73;1.10;;;32.30;36.90;;;;;;4977606;28;20527;-83
2022/05/14 09:24:52;;;;;;;5.28;1.30;;;32.20;36.70;;;;;;4975803;28;20038;-82
2022/05/14 09:27:34;;;;;;;3.25;1.27;;;32.60;37.00;;;;;;4991423;28;20035;-82
2022/05/14 09:30:12;;;;;;;3.17;1.25;;;32.60;36.50;;;;;;4973429;28;20018;-83
2022/05/14 09:32:49;;;;;;;3.45;1.45;;;32.90;36.90;;;;;;4990726;28;20081;-83
2022/05/14 09:35:32;;;;;;;2.22;1.23;;;33.70;36.60;;;;;;4969709;28;20208;-83
2022/05/14 09:38:18;;;;;;;1.95;1.10;;;33.70;35.80;;;;;;4988422;28;20030;-82
2022/05/14 09:40:45;;;;;;;4.45;1.40;;;34.40;35.60;;;;;;4996933;28;20034;-83
2022/05/14 09:43:35;;;;;;;2.58;1.00;;;34.60;35.40;;;;;;4979076;28;20482;-84
2022/05/14 09:46:22;;;;;;;2.47;1.20;;;34.70;34.90;;;;;;4979538;28;20021;-83
2022/05/14 09:48:52;;;;;;;5.82;1.20;;;34.70;35.10;;;;;;4995778;28;20483;-82
2022/05/14 09:51:51;;;;;;;2.50;1.15;;;34.30;35.30;;;;;;4980539;28;20030;-81
2022/05/14 09:54:45;;;;;;;3.10;1.45;;;33.40;36.60;;;;;;4971704;28;20042;-82
2022/05/14 09:57:28;;;;;;;4.07;1.42;;;32.90;36.80;;;;;;4975852;28;21052;-82
2022/05/14 10:00:12;;;;;;;3.70;1.73;;;32.80;36.70;;;;;;4977738;28;20029;-83
2022/05/14 10:02:44;;;;;;;3.88;1.30;;;33.10;37.00;;;;;;4997002;28;20022;-82
2022/05/14 10:05:44;;;;;;;3.38;1.40;;;33.50;36.60;;;;;;4989669;28;20026;-83
2022/05/14 10:08:48;;;;;;;4.07;1.17;;;33.60;36.10;;;;;;4988346;28;20034;-83
2022/05/14 10:11:35;;;;;;;1.42;1.13;;;33.50;36.30;;;;;;4993899;28;20030;-82
2022/05/14 10:14:42;;;;;;;2.97;1.20;;;33.80;36.20;;;;;;4974274;28;20033;-82
2022/05/14 10:17:49;;;;;;;3.50;1.20;;;33.50;35.80;;;;;;4976718;28;20069;-82
2022/05/14 10:20:26;;;;;;;6.88;1.58;;;32.80;37.10;;;;;;4975898;28;20030;-82
2022/05/14 10:29:09;;;;;;;3.67;1.17;;;32.00;37.20;;;;;;4979108;28;20480;-82
2022/05/14 10:31:43;;;;;;;3.78;1.30;;;31.30;38.60;;;;;;4977513;28;20034;-82
2022/05/14 10:34:23;;;;;;;2.90;1.08;;;31.10;37.50;;;;;;4990004;28;20029;-83
2022/05/14 10:37:11;;;;;;;3.92;1.50;;;30.90;37.20;;;;;;4984738;28;20026;-82
2022/05/14 10:40:01;;;;;;;1.52;1.13;;;30.60;37.90;;;;;;4976498;28;20743;-83
2022/05/14 10:42:52;;;;;;;2.60;1.10;;;30.50;38.80;;;;;;4983792;28;20196;-83
2022/05/14 10:45:32;;;;;;;3.85;1.30;;;30.20;38.20;;;;;;4991708;28;20022;-83
2022/05/14 10:48:00;;;;;;;2.20;0.95;;;29.90;39.00;;;;;;4983140;28;20034;-82
2022/05/14 10:50:30;;;;;;;2.08;1.10;;;29.80;39.30;;;;;;4994951;28;20533;-83
2022/05/14 10:52:58;;;;;;;3.65;1.00;;;29.90;39.40;;;;;;4981671;28;20080;-83
2022/05/14 10:55:34;;;;;;;2.97;1.50;;;30.10;39.60;;;;;;4978939;28;20034;-83
2022/05/14 10:58:10;;;;;;;;;;;29.60;40.20;;;;;;4979148;28;20050;-86
2022/05/14 11:00:43;;;;;;;2.75;1.30;;;29.10;40.00;;;;;;4996449;28;20344;-88
2022/05/14 11:03:23;;;;;;;6.03;1.70;;;28.60;40.70;;;;;;4991049;28;20036;-88
2022/05/14 11:06:02;;;;;;;4.28;1.52;;;28.10;41.60;;;;;;4989317;28;20113;-90
2022/05/14 11:08:41;;;;;;;2.53;1.38;;;27.50;42.20;;;;;;4986460;28;20026;-88
2022/05/14 11:11:29;;;;;;;5.95;2.20;;;27.20;42.30;;;;;;4974771;28;20026;-87
2022/05/14 11:14:08;;;;;;;4.53;1.65;;;27.20;42.40;;;;;;4996626;28;20055;-89
2022/05/14 11:16:50;;;;;;;6.32;1.60;;;27.00;42.40;;;;;;4993743;28;20073;-88
2022/05/14 11:19:31;;;;;;;2.95;1.20;;;26.90;43.40;;;;;;4979189;28;20074;-87
2022/05/14 11:21:58;;;;;;;3.38;1.50;;;26.80;44.00;;;;;;4980818;28;20085;-87
2022/05/14 11:24:38;;;;;;;3.33;1.70;;;26.80;43.30;;;;;;4982737;28;20076;-88
2022/05/14 11:27:05;;;;;;;3.38;1.50;;;26.90;43.30;;;;;;4979462;28;20419;-87
2022/05/14 11:29:48;;;;;;;4.15;2.00;;;26.80;44.50;;;;;;4998353;28;20632;-88
2022/05/14 11:32:23;;;;;;;2.72;1.45;;;26.60;43.60;;;;;;4979575;28;20018;-88
2022/05/14 11:34:59;;;;;;;3.00;1.60;;;26.40;44.00;;;;;;4985611;28;20041;-89
2022/05/14 11:40:58;;;;;;;2.90;1.60;;;26.10;45.00;;;;;;4980341;28;20683;-88
2022/05/14 11:43:36;;;;;;;4.18;1.52;;;26.00;44.90;;;;;;5003688;28;20026;-88
2022/05/14 11:49:35;;;;;;;2.78;1.70;;;25.90;45.30;;;;;;4981419;28;20041;-86
2022/05/14 11:58:59;;;;;;;3.70;1.40;;;25.90;45.30;;;;;;5002195;28;20518;-87
2022/05/14 12:02:00;;;;;;;3.70;1.67;;;25.80;45.30;;;;;;4997468;28;20165;-88
2022/05/14 12:11:21;;;;;;;3.90;1.70;;;25.70;46.20;;;;;;4982384;28;20033;-89
2022/05/14 12:13:56;;;;;;;6.87;1.53;;;25.80;45.50;;;;;;4997691;28;20088;-87
2022/05/14 12:23:30;;;;;;;2.88;1.63;;;25.70;45.70;;;;;;5009858;28;20069;-88
2022/05/14 12:38:34;;;;;;;2.88;1.40;;;25.60;46.20;;;;;;5008826;28;20110;-89
2022/05/14 12:45:15;;;;;;;2.17;1.48;;;25.60;47.00;;;;;;4985793;28;20094;-87
2022/05/14 12:51:59;;;;;;;8.60;2.40;;;25.60;46.50;;;;;;4997476;28;20033;-85
2022/05/14 12:57:47;;;;;;;5.05;1.95;;;25.50;48.00;;;;;;4985222;28;20110;-87
2022/05/14 13:10:01;;;;;;;5.30;2.08;;;25.60;48.00;;;;;;4984779;28;20048;-88
2022/05/14 13:12:30;;;;;;;3.80;2.53;;;25.60;48.60;;;;;;4979523;28;20480;-88
2022/05/14 13:15:05;;;;;;;3.80;2.13;;;25.70;48.40;;;;;;4978099;28;20037;-88
2022/05/14 13:21:27;;;;;;;4.68;2.08;;;25.80;49.30;;;;;;4982744;28;20159;-86
2022/05/14 13:24:02;;;;;;;3.65;1.92;;;25.60;49.20;;;;;;4989532;28;20026;-87
2022/05/14 13:26:39;;;;;;;2.20;1.90;;;25.60;48.30;;;;;;4979449;28;20048;-88
2022/05/14 13:29:35;;;;;;;3.13;2.08;;;25.70;48.20;;;;;;4991962;28;20030;-84
2022/05/14 13:41:56;;;;;;;6.15;2.20;;;25.60;50.30;;;;;;4981791;28;21533;-87
2022/05/14 13:44:26;;;;;;;2.95;1.92;;;25.50;50.00;;;;;;4983966;28;20030;-87
2022/05/14 13:46:55;;;;;;;4.68;1.98;;;25.60;50.10;;;;;;4975865;28;20133;-88
2022/05/14 13:49:27;;;;;;;5.70;2.22;;;25.50;50.50;;;;;;4981260;28;20076;-88
2022/05/14 13:52:04;;;;;;;4.93;2.42;;;25.40;49.70;;;;;;4975451;28;20022;-88
2022/05/14 13:54:38;;;;;;;4.03;2.08;;;25.40;50.50;;;;;;4979799;28;20375;-89
2022/05/14 13:57:24;;;;;;;6.18;2.20;;;25.50;51.20;;;;;;4978779;28;20037;-86
2022/05/14 15:33:38;;;;;;;3.05;1.77;;;24.50;50.80;;;;;;4982720;28;20050;-79
2022/05/14 15:36:06;;;;;;;5.22;1.88;;;24.60;50.70;;;;;;4991169;28;20010;-76
2022/05/14 15:38:32;;;;;;;3.63;1.80;;;24.50;50.50;;;;;;4985893;28;20018;-76
2022/05/14 15:41:04;;;;;;;4.40;1.80;;;24.50;50.70;;;;;;4986389;28;20026;-78
2022/05/14 15:43:34;;;;;;;3.33;1.85;;;24.50;50.90;;;;;;4989769;28;20578;-78
2022/05/14 15:46:07;;;;;;;8.23;2.00;;;24.50;50.80;;;;;;4999383;28;20037;-80
2022/05/14 15:48:41;;;;;;;3.55;1.65;;;24.50;50.10;;;;;;5000123;28;20025;-78
2022/05/14 15:51:11;;;;;;;2.85;1.65;;;24.50;50.40;;;;;;4988845;28;20026;-78
2022/05/14 15:53:42;;;;;;;5.90;2.08;;;24.50;50.70;;;;;;4991239;28;20097;-79
2022/05/14 15:56:21;;;;;;;4.60;1.75;;;24.50;50.50;;;;;;4992271;28;20029;-80
2022/05/14 15:58:48;;;;;;;9.07;1.92;;;24.50;50.10;;;;;;4989218;28;20438;-78
2022/05/14 16:01:15;;;;;;;2.90;1.70;;;24.50;50.60;;;;;;4989923;28;20025;-78
2022/05/14 16:03:41;;;;;;;2.72;1.77;;;24.50;50.40;;;;;;4990080;28;20018;-76
2022/05/14 16:06:11;;;;;;;3.85;1.75;;;24.50;49.80;;;;;;4997070;28;20014;-76
2022/05/14 16:08:38;;;;;;;3.28;1.73;;;24.50;49.90;;;;;;4976822;28;20030;-79
2022/05/14 16:16:36;;;;;;;2.15;1.80;;;24.40;50.00;;;;;;4985425;28;20041;-75
2022/05/14 16:19:04;;;;;;;4.55;1.60;;;24.40;49.70;;;;;;4986274;28;20027;-75
2022/05/14 16:21:30;;;;;;;5.43;1.60;;;24.40;49.40;;;;;;4984038;28;20019;-74
2022/05/14 16:24:02;;;;;;;;;;;24.50;48.70;;;;;;4985429;28;20049;-75
2022/05/14 16:26:33;;;;;;;3.28;2.10;;;24.50;49.40;;;;;;4980798;28;19905;-77
2022/05/14 16:29:01;;;;;;;4.22;1.63;;;24.50;48.30;;;;;;4988905;28;20026;-76
2022/05/14 16:31:29;;;;;;;6.18;2.78;;;24.50;48.20;;;;;;4985797;28;20026;-79
2022/05/14 16:33:57;;;;;;;4.05;1.50;;;24.40;49.20;;;;;;4995912;28;20066;-76